Date,TemperatureHighF,TemperatureAvgF,TemperatureLowF,DewpointHighF,DewpointAvgF,DewpointLowF,HumidityHigh,HumidityAvg,HumidityLow,PressureMaxIn,PressureMinIn,WindSpeedMaxMPH,WindSpeedAvgMPH,GustSpeedMaxMPH,PrecipitationSumIn
2013-10-1,69.1,57.4,50.1,60.2,53.4,50.1,100,88,61,29.89,29.81,11,0,11,0.00
2013-10-2,68.6,54.7,46.0,56.4,51.2,46.0,100,89,58,29.90,29.83,8,0,8,0.00
2013-10-3,67.8,54.0,40.2,55.4,46.6,34.1,100,79,35,29.91,29.80,14,1,14,0.01
2013-10-4,81.1,65.2,52.9,44.3,35.4,29.8,52,34,18,29.96,29.83,14,1,14,0.00
2013-10-5,90.3,73.6,54.1,44.1,33.1,25.0,57,26,10,30.05,29.96,21,2,21,0.00
2013-10-6,90.1,69.3,52.9,41.1,32.9,26.9,55,29,11,30.01,29.91,11,1,11,0.00
2013-10-7,66.3,55.7,49.4,57.2,48.8,30.4,100,80,42,29.92,29.85,11,0,11,0.00
2013-10-8,61.3,54.8,51.3,53.6,51.3,49.1,98,88,73,29.87,29.73,10,0,10,0.00
2013-10-9,59.9,53.7,45.7,52.2,49.4,44.2,97,86,70,29.73,29.59,16,1,16,0.00
2013-10-10,62.0,52.2,42.1,53.4,48.7,41.9,100,89,72,29.96,29.73,7,0,7,0.00
2013-10-11,62.1,52.9,44.6,52.9,49.3,43.8,100,88,70,29.99,29.91,11,0,11,0.00
2013-10-12,62.7,52.9,47.6,55.7,51.0,47.4,100,94,73,29.94,29.85,9,0,9,0.00
2013-10-13,61.5,53.3,47.6,54.6,51.4,47.4,100,94,75,29.97,29.86,10,0,10,0.00
2013-10-14,75.6,59.3,44.3,57.3,46.8,41.3,100,68,35,29.98,29.87,10,0,10,0.01
2013-10-15,79.8,65.2,52.5,46.7,42.4,39.3,66,46,27,29.92,29.82,14,1,14,0.00
2013-10-16,82.8,67.1,51.9,43.0,38.3,32.8,54,37,19,29.98,29.88,9,0,9,0.00
2013-10-17,76.7,60.7,46.0,51.1,38.1,32.0,61,45,24,29.97,29.86,11,0,11,0.00
2013-10-18,76.1,59.6,48.5,54.5,44.6,34.8,99,61,31,29.93,29.88,9,0,9,0.00
2013-10-19,66.6,54.1,42.3,57.9,51.4,42.3,100,92,69,29.97,29.92,7,0,7,0.00
2013-10-20,68.3,54.8,48.6,56.7,52.6,48.6,100,93,64,29.96,29.83,8,0,8,0.00
2013-10-21,59.0,52.9,49.8,56.0,51.8,49.8,100,96,83,29.92,29.86,9,0,9,0.00
2013-10-22,58.9,51.9,48.0,55.1,50.9,48.0,100,97,83,29.94,29.86,8,0,8,0.00
2013-10-23,59.2,52.8,48.3,55.3,51.6,48.3,100,96,83,29.92,29.83,9,0,9,0.00
2013-10-24,58.9,52.7,46.4,53.2,51.2,46.4,100,95,80,30.02,29.89,11,0,11,0.00
2013-10-25,63.9,51.8,41.2,58.3,49.8,41.2,100,94,75,30.07,29.97,8,0,8,0.00
2013-10-26,66.0,52.1,40.3,57.5,50.2,40.3,100,94,72,30.03,29.94,7,0,7,0.00
2013-10-27,57.2,53.0,49.4,54.2,51.5,49.4,100,95,85,29.97,29.74,10,0,10,0.00
2013-10-28,59.5,53.4,49.6,55.3,52.7,49.1,100,98,83,29.83,29.70,8,0,8,0.07
2013-10-29,62.0,53.6,47.0,57.0,52.0,47.0,100,95,75,29.95,29.83,9,0,9,0.01
2013-10-30,65.2,51.9,41.5,55.3,47.7,41.3,100,87,60,30.04,29.95,10,0,10,0.01
2013-10-31,73.2,58.5,49.4,51.2,46.8,43.9,89,67,37,30.04,29.96,14,0,14,0.00